sensor_id;sensor_type;location;lat;lon;timestamp;P1;durP1;ratioP1;P2;durP2;ratioP2
34035;SDS011;63481;52.588;22.472;2023-05-07T00:00:15;6.80;;;2.20;;
34035;SDS011;63481;52.588;22.472;2023-05-07T00:01:10;5.30;;;1.90;;
34035;SDS011;63481;52.588;22.472;2023-05-07T00:01:42;4.60;;;1.90;;
34035;SDS011;63481;52.588;22.472;2023-05-07T00:02:14;6.80;;;2.20;;
34035;SDS011;63481;52.588;22.472;2023-05-07T00:02:47;5.60;;;2.20;;
34035;SDS011;63481;52.588;22.472;2023-05-07T00:03:19;4.70;;;2.30;;
34035;SDS011;63481;52.588;22.472;2023-05-07T00:03:51;6.50;;;2.10;;
34035;SDS011;63481;52.588;22.472;2023-05-07T00:04:23;5.60;;;2.10;;
34035;SDS011;63481;52.588;22.472;2023-05-07T00:04:56;8.00;;;2.30;;
34035;SDS011;63481;52.588;22.472;2023-05-07T00:05:27;2.20;;;1.90;;
34035;SDS011;63481;52.588;22.472;2023-05-07T00:05:59;4.60;;;2.10;;
34035;SDS011;63481;52.588;22.472;2023-05-07T00:06:31;4.20;;;2.20;;
34035;SDS011;63481;52.588;22.472;2023-05-07T00:07:04;5.40;;;2.40;;
34035;SDS011;63481;52.588;22.472;2023-05-07T00:07:36;4.80;;;2.10;;
34035;SDS011;63481;52.588;22.472;2023-05-07T00:08:08;6.10;;;2.10;;
34035;SDS011;63481;52.588;22.472;2023-05-07T00:08:40;6.00;;;2.20;;
34035;SDS011;63481;52.588;22.472;2023-05-07T00:09:12;4.50;;;2.20;;
34035;SDS011;63481;52.588;22.472;2023-05-07T00:09:44;4.80;;;2.10;;
34035;SDS011;63481;52.588;22.472;2023-05-07T00:10:17;4.50;;;2.00;;
34035;SDS011;63481;52.588;22.472;2023-05-07T00:10:49;6.20;;;2.60;;
34035;SDS011;63481;52.588;22.472;2023-05-07T00:11:21;6.00;;;2.30;;
34035;SDS011;63481;52.588;22.472;2023-05-07T00:11:53;6.20;;;2.40;;
34035;SDS011;63481;52.588;22.472;2023-05-07T00:12:25;5.50;;;2.50;;
34035;SDS011;63481;52.588;22.472;2023-05-07T00:12:56;8.50;;;2.80;;
34035;SDS011;63481;52.588;22.472;2023-05-07T00:13:28;5.80;;;2.70;;
34035;SDS011;63481;52.588;22.472;2023-05-07T00:14:06;4.20;;;2.20;;
34035;SDS011;63481;52.588;22.472;2023-05-07T00:14:38;4.80;;;2.20;;
34035;SDS011;63481;52.588;22.472;2023-05-07T00:15:10;3.20;;;2.10;;
34035;SDS011;63481;52.588;22.472;2023-05-07T00:15:45;6.60;;;2.50;;
34035;SDS011;63481;52.588;22.472;2023-05-07T00:16:17;6.50;;;2.70;;
34035;SDS011;63481;52.588;22.472;2023-05-07T00:16:49;6.10;;;2.40;;
34035;SDS011;63481;52.588;22.472;2023-05-07T00:17:21;4.00;;;2.10;;
34035;SDS011;63481;52.588;22.472;2023-05-07T00:17:53;6.60;;;2.30;;
34035;SDS011;63481;52.588;22.472;2023-05-07T00:18:25;8.80;;;2.40;;
34035;SDS011;63481;52.588;22.472;2023-05-07T00:18:57;3.40;;;2.30;;
34035;SDS011;63481;52.588;22.472;2023-05-07T00:19:29;5.00;;;2.20;;
34035;SDS011;63481;52.588;22.472;2023-05-07T00:20:01;5.80;;;2.00;;
34035;SDS011;63481;52.588;22.472;2023-05-07T00:20:34;4.60;;;2.10;;
34035;SDS011;63481;52.588;22.472;2023-05-07T00:21:06;5.10;;;2.40;;
34035;SDS011;63481;52.588;22.472;2023-05-07T00:21:38;8.40;;;2.50;;
34035;SDS011;63481;52.588;22.472;2023-05-07T00:22:10;6.50;;;2.40;;
34035;SDS011;63481;52.588;22.472;2023-05-07T00:22:42;4.50;;;2.40;;
34035;SDS011;63481;52.588;22.472;2023-05-07T00:23:14;7.40;;;2.80;;
34035;SDS011;63481;52.588;22.472;2023-05-07T00:23:46;7.00;;;2.50;;
34035;SDS011;63481;52.588;22.472;2023-05-07T00:24:19;7.60;;;2.50;;
34035;SDS011;63481;52.588;22.472;2023-05-07T00:24:51;7.10;;;2.70;;
34035;SDS011;63481;52.588;22.472;2023-05-07T00:25:23;4.10;;;2.40;;
34035;SDS011;63481;52.588;22.472;2023-05-07T00:25:55;8.10;;;2.70;;
34035;SDS011;63481;52.588;22.472;2023-05-07T00:26:27;5.70;;;2.40;;
34035;SDS011;63481;52.588;22.472;2023-05-07T00:27:00;4.10;;;2.30;;
34035;SDS011;63481;52.588;22.472;2023-05-07T00:27:31;4.40;;;2.50;;
34035;SDS011;63481;52.588;22.472;2023-05-07T00:28:03;4.30;;;2.20;;
34035;SDS011;63481;52.588;22.472;2023-05-07T00:28:35;8.60;;;2.90;;
34035;SDS011;63481;52.588;22.472;2023-05-07T00:29:08;5.20;;;2.60;;
34035;SDS011;63481;52.588;22.472;2023-05-07T00:29:39;8.50;;;2.60;;
34035;SDS011;63481;52.588;22.472;2023-05-07T00:30:11;7.80;;;2.50;;
34035;SDS011;63481;52.588;22.472;2023-05-07T00:30:44;6.20;;;2.90;;
34035;SDS011;63481;52.588;22.472;2023-05-07T00:31:15;5.60;;;2.80;;
34035;SDS011;63481;52.588;22.472;2023-05-07T00:31:48;5.40;;;2.30;;
34035;SDS011;63481;52.588;22.472;2023-05-07T00:32:21;4.50;;;2.20;;
34035;SDS011;63481;52.588;22.472;2023-05-07T00:32:53;5.20;;;2.60;;
34035;SDS011;63481;52.588;22.472;2023-05-07T00:33:25;7.00;;;2.60;;
34035;SDS011;63481;52.588;22.472;2023-05-07T00:33:58;5.30;;;2.00;;
34035;SDS011;63481;52.588;22.472;2023-05-07T00:34:30;10.90;;;2.50;;
34035;SDS011;63481;52.588;22.472;2023-05-07T00:35:03;7.80;;;2.40;;
34035;SDS011;63481;52.588;22.472;2023-05-07T00:35:35;5.60;;;2.00;;
34035;SDS011;63481;52.588;22.472;2023-05-07T00:36:07;5.40;;;2.20;;
34035;SDS011;63481;52.588;22.472;2023-05-07T00:36:39;6.20;;;2.30;;
34035;SDS011;63481;52.588;22.472;2023-05-07T00:37:11;9.20;;;3.30;;
34035;SDS011;63481;52.588;22.472;2023-05-07T00:37:43;5.20;;;2.30;;
34035;SDS011;63481;52.588;22.472;2023-05-07T00:38:15;5.50;;;2.20;;
34035;SDS011;63481;52.588;22.472;2023-05-07T00:38:47;3.90;;;2.20;;
34035;SDS011;63481;52.588;22.472;2023-05-07T00:39:19;5.80;;;2.90;;
34035;SDS011;63481;52.588;22.472;2023-05-07T00:39:51;10.30;;;2.40;;
34035;SDS011;63481;52.588;22.472;2023-05-07T00:40:23;4.40;;;2.20;;
34035;SDS011;63481;52.588;22.472;2023-05-07T00:40:55;5.30;;;2.40;;
34035;SDS011;63481;52.588;22.472;2023-05-07T00:41:27;5.40;;;2.20;;
34035;SDS011;63481;52.588;22.472;2023-05-07T00:41:59;5.70;;;2.50;;
34035;SDS011;63481;52.588;22.472;2023-05-07T00:42:32;6.10;;;2.50;;
34035;SDS011;63481;52.588;22.472;2023-05-07T00:43:04;7.90;;;3.20;;
34035;SDS011;63481;52.588;22.472;2023-05-07T00:43:36;7.20;;;2.30;;
34035;SDS011;63481;52.588;22.472;2023-05-07T00:44:07;5.40;;;2.60;;
34035;SDS011;63481;52.588;22.472;2023-05-07T00:44:40;5.30;;;2.40;;
34035;SDS011;63481;52.588;22.472;2023-05-07T00:45:15;5.30;;;2.30;;
34035;SDS011;63481;52.588;22.472;2023-05-07T00:45:48;6.70;;;2.50;;
34035;SDS011;63481;52.588;22.472;2023-05-07T00:46:21;7.00;;;3.20;;
34035;SDS011;63481;52.588;22.472;2023-05-07T00:46:53;5.10;;;2.60;;
34035;SDS011;63481;52.588;22.472;2023-05-07T00:47:25;6.40;;;2.80;;
34035;SDS011;63481;52.588;22.472;2023-05-07T00:47:59;6.70;;;2.50;;
34035;SDS011;63481;52.588;22.472;2023-05-07T00:48:32;3.90;;;2.10;;
34035;SDS011;63481;52.588;22.472;2023-05-07T00:49:04;6.70;;;2.70;;
34035;SDS011;63481;52.588;22.472;2023-05-07T00:49:38;7.20;;;2.40;;
34035;SDS011;63481;52.588;22.472;2023-05-07T00:50:15;6.20;;;2.30;;
34035;SDS011;63481;52.588;22.472;2023-05-07T00:50:48;6.60;;;2.40;;
34035;SDS011;63481;52.588;22.472;2023-05-07T00:51:20;6.50;;;2.70;;
34035;SDS011;63481;52.588;22.472;2023-05-07T00:51:53;7.70;;;2.60;;
34035;SDS011;63481;52.588;22.472;2023-05-07T00:52:25;5.80;;;2.50;;
34035;SDS011;63481;52.588;22.472;2023-05-07T00:52:58;6.10;;;3.20;;
34035;SDS011;63481;52.588;22.472;2023-05-07T00:53:31;5.10;;;2.40;;
34035;SDS011;63481;52.588;22.472;2023-05-07T00:54:03;6.20;;;2.40;;
34035;SDS011;63481;52.588;22.472;2023-05-07T00:54:35;4.90;;;2.00;;
34035;SDS011;63481;52.588;22.472;2023-05-07T00:55:07;7.10;;;2.50;;
34035;SDS011;63481;52.588;22.472;2023-05-07T00:55:40;8.10;;;3.10;;
34035;SDS011;63481;52.588;22.472;2023-05-07T00:56:11;6.60;;;2.40;;
34035;SDS011;63481;52.588;22.472;2023-05-07T00:56:44;5.90;;;2.50;;
34035;SDS011;63481;52.588;22.472;2023-05-07T00:57:16;8.30;;;2.50;;
34035;SDS011;63481;52.588;22.472;2023-05-07T00:57:49;5.30;;;2.50;;
34035;SDS011;63481;52.588;22.472;2023-05-07T00:58:21;5.60;;;2.60;;
34035;SDS011;63481;52.588;22.472;2023-05-07T00:58:55;5.70;;;2.50;;
34035;SDS011;63481;52.588;22.472;2023-05-07T00:59:27;5.80;;;2.40;;
34035;SDS011;63481;52.588;22.472;2023-05-07T00:59:59;5.40;;;2.70;;
34035;SDS011;63481;52.588;22.472;2023-05-07T01:00:31;5.00;;;2.50;;
34035;SDS011;63481;52.588;22.472;2023-05-07T01:01:03;5.70;;;2.60;;
34035;SDS011;63481;52.588;22.472;2023-05-07T01:01:34;4.90;;;2.50;;
34035;SDS011;63481;52.588;22.472;2023-05-07T01:02:08;8.50;;;2.90;;
34035;SDS011;63481;52.588;22.472;2023-05-07T01:02:40;4.20;;;2.30;;
34035;SDS011;63481;52.588;22.472;2023-05-07T01:03:13;5.50;;;2.70;;
34035;SDS011;63481;52.588;22.472;2023-05-07T01:03:45;6.20;;;2.80;;
34035;SDS011;63481;52.588;22.472;2023-05-07T01:04:17;6.40;;;2.70;;
34035;SDS011;63481;52.588;22.472;2023-05-07T01:04:49;8.60;;;2.50;;
34035;SDS011;63481;52.588;22.472;2023-05-07T01:05:20;6.10;;;2.70;;
34035;SDS011;63481;52.588;22.472;2023-05-07T01:05:57;8.70;;;2.80;;
34035;SDS011;63481;52.588;22.472;2023-05-07T01:06:31;5.00;;;2.40;;
34035;SDS011;63481;52.588;22.472;2023-05-07T01:07:04;10.00;;;2.30;;
34035;SDS011;63481;52.588;22.472;2023-05-07T01:07:37;5.40;;;2.20;;
34035;SDS011;63481;52.588;22.472;2023-05-07T01:08:11;7.00;;;2.70;;
34035;SDS011;63481;52.588;22.472;2023-05-07T01:08:44;5.40;;;2.50;;
34035;SDS011;63481;52.588;22.472;2023-05-07T01:09:16;6.30;;;2.60;;
34035;SDS011;63481;52.588;22.472;2023-05-07T01:09:49;9.00;;;2.70;;
34035;SDS011;63481;52.588;22.472;2023-05-07T01:10:21;6.20;;;2.60;;
34035;SDS011;63481;52.588;22.472;2023-05-07T01:10:54;5.30;;;2.50;;
34035;SDS011;63481;52.588;22.472;2023-05-07T01:11:27;5.10;;;2.40;;
34035;SDS011;63481;52.588;22.472;2023-05-07T01:11:59;7.30;;;3.10;;
34035;SDS011;63481;52.588;22.472;2023-05-07T01:12:32;7.00;;;2.50;;
34035;SDS011;63481;52.588;22.472;2023-05-07T01:13:04;5.60;;;2.30;;
34035;SDS011;63481;52.588;22.472;2023-05-07T01:13:37;10.60;;;3.00;;
34035;SDS011;63481;52.588;22.472;2023-05-07T01:14:10;6.30;;;2.40;;
34035;SDS011;63481;52.588;22.472;2023-05-07T01:14:42;5.80;;;2.80;;
34035;SDS011;63481;52.588;22.472;2023-05-07T01:15:15;4.00;;;2.30;;
34035;SDS011;63481;52.588;22.472;2023-05-07T01:15:47;6.50;;;3.00;;
34035;SDS011;63481;52.588;22.472;2023-05-07T01:16:19;4.60;;;2.30;;
34035;SDS011;63481;52.588;22.472;2023-05-07T01:16:52;4.70;;;2.60;;
34035;SDS011;63481;52.588;22.472;2023-05-07T01:17:25;8.20;;;2.80;;
34035;SDS011;63481;52.588;22.472;2023-05-07T01:17:57;4.60;;;2.60;;
34035;SDS011;63481;52.588;22.472;2023-05-07T01:18:34;6.10;;;3.20;;
34035;SDS011;63481;52.588;22.472;2023-05-07T01:19:06;5.30;;;2.60;;
34035;SDS011;63481;52.588;22.472;2023-05-07T01:19:40;8.70;;;3.20;;
34035;SDS011;63481;52.588;22.472;2023-05-07T01:20:12;11.50;;;4.20;;
34035;SDS011;63481;52.588;22.472;2023-05-07T01:20:44;8.20;;;3.10;;
34035;SDS011;63481;52.588;22.472;2023-05-07T01:21:17;7.00;;;2.70;;
34035;SDS011;63481;52.588;22.472;2023-05-07T01:21:49;6.30;;;2.60;;
34035;SDS011;63481;52.588;22.472;2023-05-07T01:22:30;7.50;;;3.00;;
34035;SDS011;63481;52.588;22.472;2023-05-07T01:23:04;4.20;;;2.20;;
34035;SDS011;63481;52.588;22.472;2023-05-07T01:23:38;6.80;;;3.20;;
34035;SDS011;63481;52.588;22.472;2023-05-07T01:24:11;7.60;;;2.90;;
34035;SDS011;63481;52.588;22.472;2023-05-07T01:24:43;5.60;;;2.90;;
34035;SDS011;63481;52.588;22.472;2023-05-07T01:25:16;9.40;;;2.90;;
34035;SDS011;63481;52.588;22.472;2023-05-07T01:25:51;7.90;;;3.30;;
34035;SDS011;63481;52.588;22.472;2023-05-07T01:26:25;5.70;;;2.90;;
34035;SDS011;63481;52.588;22.472;2023-05-07T01:26:57;5.60;;;2.50;;
34035;SDS011;63481;52.588;22.472;2023-05-07T01:27:29;8.10;;;2.70;;
34035;SDS011;63481;52.588;22.472;2023-05-07T01:28:01;7.30;;;2.90;;
34035;SDS011;63481;52.588;22.472;2023-05-07T01:28:35;5.30;;;2.80;;
34035;SDS011;63481;52.588;22.472;2023-05-07T01:29:07;8.00;;;2.80;;
34035;SDS011;63481;52.588;22.472;2023-05-07T01:29:40;4.00;;;2.40;;
34035;SDS011;63481;52.588;22.472;2023-05-07T01:30:12;7.20;;;3.20;;
34035;SDS011;63481;52.588;22.472;2023-05-07T01:30:45;5.30;;;2.50;;
34035;SDS011;63481;52.588;22.472;2023-05-07T01:31:24;4.50;;;2.60;;
34035;SDS011;63481;52.588;22.472;2023-05-07T01:31:57;6.90;;;2.70;;
34035;SDS011;63481;52.588;22.472;2023-05-07T01:32:45;6.90;;;2.60;;
34035;SDS011;63481;52.588;22.472;2023-05-07T01:33:22;9.20;;;2.70;;
34035;SDS011;63481;52.588;22.472;2023-05-07T01:33:56;7.20;;;2.80;;
34035;SDS011;63481;52.588;22.472;2023-05-07T01:34:31;8.20;;;2.90;;
34035;SDS011;63481;52.588;22.472;2023-05-07T01:35:05;6.50;;;2.50;;
34035;SDS011;63481;52.588;22.472;2023-05-07T01:35:42;5.80;;;2.80;;
34035;SDS011;63481;52.588;22.472;2023-05-07T01:36:17;4.70;;;2.60;;
34035;SDS011;63481;52.588;22.472;2023-05-07T01:36:50;6.30;;;2.80;;
34035;SDS011;63481;52.588;22.472;2023-05-07T01:37:22;4.80;;;2.50;;
34035;SDS011;63481;52.588;22.472;2023-05-07T01:37:55;8.60;;;3.40;;
34035;SDS011;63481;52.588;22.472;2023-05-07T01:38:28;7.20;;;3.20;;
34035;SDS011;63481;52.588;22.472;2023-05-07T01:39:01;6.20;;;3.00;;
34035;SDS011;63481;52.588;22.472;2023-05-07T01:39:33;7.20;;;2.90;;
34035;SDS011;63481;52.588;22.472;2023-05-07T01:40:05;6.10;;;2.60;;
34035;SDS011;63481;52.588;22.472;2023-05-07T01:40:38;6.80;;;2.80;;
34035;SDS011;63481;52.588;22.472;2023-05-07T01:41:11;9.50;;;3.00;;
34035;SDS011;63481;52.588;22.472;2023-05-07T01:41:44;8.40;;;3.40;;
34035;SDS011;63481;52.588;22.472;2023-05-07T01:42:17;6.40;;;2.70;;
34035;SDS011;63481;52.588;22.472;2023-05-07T01:42:49;6.10;;;3.00;;
34035;SDS011;63481;52.588;22.472;2023-05-07T01:43:22;6.40;;;2.90;;
34035;SDS011;63481;52.588;22.472;2023-05-07T01:43:54;6.10;;;2.70;;
34035;SDS011;63481;52.588;22.472;2023-05-07T01:44:26;5.70;;;2.80;;
34035;SDS011;63481;52.588;22.472;2023-05-07T01:44:59;5.30;;;2.70;;
34035;SDS011;63481;52.588;22.472;2023-05-07T01:45:31;5.70;;;2.70;;
34035;SDS011;63481;52.588;22.472;2023-05-07T01:46:04;7.30;;;3.20;;
34035;SDS011;63481;52.588;22.472;2023-05-07T01:46:36;4.80;;;2.60;;
34035;SDS011;63481;52.588;22.472;2023-05-07T01:47:08;5.00;;;2.60;;
34035;SDS011;63481;52.588;22.472;2023-05-07T01:47:41;7.50;;;3.00;;
34035;SDS011;63481;52.588;22.472;2023-05-07T01:48:14;8.40;;;3.40;;
34035;SDS011;63481;52.588;22.472;2023-05-07T01:48:47;7.70;;;3.10;;
34035;SDS011;63481;52.588;22.472;2023-05-07T01:49:19;8.00;;;3.30;;
34035;SDS011;63481;52.588;22.472;2023-05-07T01:49:51;6.50;;;3.10;;
34035;SDS011;63481;52.588;22.472;2023-05-07T01:50:24;7.30;;;3.10;;
34035;SDS011;63481;52.588;22.472;2023-05-07T01:50:57;8.90;;;3.20;;
34035;SDS011;63481;52.588;22.472;2023-05-07T01:51:29;6.00;;;2.60;;
34035;SDS011;63481;52.588;22.472;2023-05-07T01:52:02;8.30;;;2.60;;
34035;SDS011;63481;52.588;22.472;2023-05-07T01:52:36;8.90;;;2.80;;
34035;SDS011;63481;52.588;22.472;2023-05-07T01:53:10;5.70;;;2.80;;
34035;SDS011;63481;52.588;22.472;2023-05-07T01:53:42;7.10;;;2.70;;
34035;SDS011;63481;52.588;22.472;2023-05-07T01:54:15;6.40;;;2.70;;
34035;SDS011;63481;52.588;22.472;2023-05-07T01:54:48;4.60;;;2.70;;
34035;SDS011;63481;52.588;22.472;2023-05-07T01:55:20;4.60;;;2.80;;
34035;SDS011;63481;52.588;22.472;2023-05-07T01:55:52;7.30;;;3.20;;
34035;SDS011;63481;52.588;22.472;2023-05-07T01:56:26;5.60;;;2.90;;
34035;SDS011;63481;52.588;22.472;2023-05-07T01:56:58;5.10;;;3.10;;
34035;SDS011;63481;52.588;22.472;2023-05-07T01:57:30;7.80;;;3.50;;
34035;SDS011;63481;52.588;22.472;2023-05-07T01:58:02;5.80;;;2.90;;
34035;SDS011;63481;52.588;22.472;2023-05-07T01:58:35;7.50;;;3.30;;
34035;SDS011;63481;52.588;22.472;2023-05-07T01:59:06;6.80;;;3.00;;
34035;SDS011;63481;52.588;22.472;2023-05-07T01:59:38;11.40;;;3.30;;
34035;SDS011;63481;52.588;22.472;2023-05-07T02:00:11;6.40;;;3.00;;
34035;SDS011;63481;52.588;22.472;2023-05-07T02:00:50;6.70;;;3.10;;
34035;SDS011;63481;52.588;22.472;2023-05-07T02:01:22;6.00;;;3.00;;
34035;SDS011;63481;52.588;22.472;2023-05-07T02:01:54;7.00;;;3.30;;
34035;SDS011;63481;52.588;22.472;2023-05-07T02:02:26;7.30;;;3.30;;
34035;SDS011;63481;52.588;22.472;2023-05-07T02:02:58;6.90;;;3.10;;
34035;SDS011;63481;52.588;22.472;2023-05-07T02:03:35;5.90;;;3.00;;
34035;SDS011;63481;52.588;22.472;2023-05-07T02:04:11;7.20;;;3.30;;
34035;SDS011;63481;52.588;22.472;2023-05-07T02:04:43;6.00;;;3.00;;
34035;SDS011;63481;52.588;22.472;2023-05-07T02:05:15;7.30;;;3.10;;
34035;SDS011;63481;52.588;22.472;2023-05-07T02:05:48;7.90;;;4.00;;
34035;SDS011;63481;52.588;22.472;2023-05-07T02:06:40;6.70;;;3.30;;
34035;SDS011;63481;52.588;22.472;2023-05-07T02:07:13;7.50;;;3.20;;
34035;SDS011;63481;52.588;22.472;2023-05-07T02:07:45;8.30;;;3.70;;
34035;SDS011;63481;52.588;22.472;2023-05-07T02:08:17;7.30;;;3.50;;
34035;SDS011;63481;52.588;22.472;2023-05-07T02:08:49;6.90;;;3.50;;
34035;SDS011;63481;52.588;22.472;2023-05-07T02:09:21;5.40;;;2.90;;
34035;SDS011;63481;52.588;22.472;2023-05-07T02:09:54;9.90;;;4.60;;
34035;SDS011;63481;52.588;22.472;2023-05-07T02:10:29;9.80;;;4.40;;
34035;SDS011;63481;52.588;22.472;2023-05-07T02:11:01;20.30;;;6.10;;
34035;SDS011;63481;52.588;22.472;2023-05-07T02:11:34;11.50;;;4.80;;
34035;SDS011;63481;52.588;22.472;2023-05-07T02:12:06;6.20;;;3.60;;
34035;SDS011;63481;52.588;22.472;2023-05-07T02:12:38;7.20;;;4.00;;
34035;SDS011;63481;52.588;22.472;2023-05-07T02:13:10;9.30;;;3.50;;
34035;SDS011;63481;52.588;22.472;2023-05-07T02:13:42;8.00;;;3.70;;
34035;SDS011;63481;52.588;22.472;2023-05-07T02:14:14;6.80;;;3.90;;
34035;SDS011;63481;52.588;22.472;2023-05-07T02:14:47;9.00;;;3.30;;
34035;SDS011;63481;52.588;22.472;2023-05-07T02:15:19;7.60;;;4.40;;
34035;SDS011;63481;52.588;22.472;2023-05-07T02:15:51;7.60;;;3.60;;
34035;SDS011;63481;52.588;22.472;2023-05-07T02:16:23;8.00;;;3.70;;
34035;SDS011;63481;52.588;22.472;2023-05-07T02:16:56;8.20;;;3.50;;
34035;SDS011;63481;52.588;22.472;2023-05-07T02:17:28;9.20;;;4.00;;
34035;SDS011;63481;52.588;22.472;2023-05-07T02:18:04;10.80;;;4.00;;
34035;SDS011;63481;52.588;22.472;2023-05-07T02:18:38;8.10;;;3.80;;
34035;SDS011;63481;52.588;22.472;2023-05-07T02:19:10;9.90;;;4.10;;
34035;SDS011;63481;52.588;22.472;2023-05-07T02:19:42;9.30;;;3.80;;
34035;SDS011;63481;52.588;22.472;2023-05-07T02:20:14;6.50;;;3.30;;
34035;SDS011;63481;52.588;22.472;2023-05-07T02:20:47;5.90;;;3.20;;
34035;SDS011;63481;52.588;22.472;2023-05-07T02:21:19;9.40;;;3.60;;
34035;SDS011;63481;52.588;22.472;2023-05-07T02:21:51;7.90;;;3.80;;
34035;SDS011;63481;52.588;22.472;2023-05-07T02:22:23;10.80;;;3.70;;
34035;SDS011;63481;52.588;22.472;2023-05-07T02:22:56;8.90;;;3.70;;
34035;SDS011;63481;52.588;22.472;2023-05-07T02:23:31;7.80;;;3.80;;
34035;SDS011;63481;52.588;22.472;2023-05-07T02:24:03;9.80;;;4.10;;
34035;SDS011;63481;52.588;22.472;2023-05-07T02:24:35;6.70;;;3.40;;
34035;SDS011;63481;52.588;22.472;2023-05-07T02:25:07;7.30;;;3.40;;
34035;SDS011;63481;52.588;22.472;2023-05-07T02:25:39;7.40;;;3.60;;
34035;SDS011;63481;52.588;22.472;2023-05-07T02:26:12;6.30;;;2.90;;
34035;SDS011;63481;52.588;22.472;2023-05-07T02:26:44;8.90;;;3.90;;
34035;SDS011;63481;52.588;22.472;2023-05-07T02:27:16;8.50;;;3.50;;
34035;SDS011;63481;52.588;22.472;2023-05-07T02:27:49;8.90;;;3.90;;
34035;SDS011;63481;52.588;22.472;2023-05-07T02:28:22;8.20;;;3.70;;
34035;SDS011;63481;52.588;22.472;2023-05-07T02:28:56;6.90;;;3.40;;
34035;SDS011;63481;52.588;22.472;2023-05-07T02:29:29;9.00;;;4.30;;
34035;SDS011;63481;52.588;22.472;2023-05-07T02:30:01;9.20;;;3.60;;
34035;SDS011;63481;52.588;22.472;2023-05-07T02:30:33;8.20;;;3.50;;
34035;SDS011;63481;52.588;22.472;2023-05-07T02:31:05;8.60;;;3.80;;
34035;SDS011;63481;52.588;22.472;2023-05-07T02:31:38;6.10;;;3.30;;
34035;SDS011;63481;52.588;22.472;2023-05-07T02:32:10;11.00;;;4.90;;
34035;SDS011;63481;52.588;22.472;2023-05-07T02:32:42;6.90;;;3.80;;
34035;SDS011;63481;52.588;22.472;2023-05-07T02:33:14;8.80;;;3.50;;
34035;SDS011;63481;52.588;22.472;2023-05-07T02:33:46;8.80;;;3.60;;
34035;SDS011;63481;52.588;22.472;2023-05-07T02:34:18;8.60;;;4.10;;
34035;SDS011;63481;52.588;22.472;2023-05-07T02:34:51;8.10;;;3.20;;
34035;SDS011;63481;52.588;22.472;2023-05-07T02:35:26;9.60;;;3.80;;
34035;SDS011;63481;52.588;22.472;2023-05-07T02:36:11;5.00;;;2.70;;
34035;SDS011;63481;52.588;22.472;2023-05-07T02:37:09;7.00;;;3.60;;
34035;SDS011;63481;52.588;22.472;2023-05-07T02:37:41;6.80;;;3.50;;
34035;SDS011;63481;52.588;22.472;2023-05-07T02:38:13;6.70;;;3.50;;
34035;SDS011;63481;52.588;22.472;2023-05-07T02:38:45;7.90;;;3.20;;
34035;SDS011;63481;52.588;22.472;2023-05-07T02:39:17;11.30;;;3.80;;
34035;SDS011;63481;52.588;22.472;2023-05-07T02:39:49;8.50;;;3.60;;
34035;SDS011;63481;52.588;22.472;2023-05-07T02:40:22;6.80;;;3.40;;
34035;SDS011;63481;52.588;22.472;2023-05-07T02:40:54;8.50;;;3.80;;
34035;SDS011;63481;52.588;22.472;2023-05-07T02:41:26;6.80;;;3.70;;
34035;SDS011;63481;52.588;22.472;2023-05-07T02:41:59;11.60;;;4.90;;
34035;SDS011;63481;52.588;22.472;2023-05-07T02:42:31;9.70;;;3.90;;
34035;SDS011;63481;52.588;22.472;2023-05-07T02:43:04;8.00;;;3.70;;
34035;SDS011;63481;52.588;22.472;2023-05-07T02:43:37;7.40;;;3.60;;
34035;SDS011;63481;52.588;22.472;2023-05-07T02:44:10;6.80;;;3.80;;
34035;SDS011;63481;52.588;22.472;2023-05-07T02:44:42;6.40;;;3.60;;
34035;SDS011;63481;52.588;22.472;2023-05-07T02:45:14;6.60;;;3.50;;
34035;SDS011;63481;52.588;22.472;2023-05-07T02:45:47;6.30;;;3.80;;
34035;SDS011;63481;52.588;22.472;2023-05-07T02:46:19;7.70;;;3.70;;
34035;SDS011;63481;52.588;22.472;2023-05-07T02:46:53;8.70;;;3.80;;
34035;SDS011;63481;52.588;22.472;2023-05-07T02:47:25;7.50;;;3.70;;
34035;SDS011;63481;52.588;22.472;2023-05-07T02:48:01;6.20;;;3.50;;
34035;SDS011;63481;52.588;22.472;2023-05-07T02:48:33;5.80;;;3.60;;
34035;SDS011;63481;52.588;22.472;2023-05-07T02:49:06;5.90;;;3.40;;
34035;SDS011;63481;52.588;22.472;2023-05-07T02:49:39;6.00;;;3.50;;
34035;SDS011;63481;52.588;22.472;2023-05-07T02:50:11;7.40;;;3.40;;
34035;SDS011;63481;52.588;22.472;2023-05-07T02:50:43;6.50;;;3.30;;
34035;SDS011;63481;52.588;22.472;2023-05-07T02:51:19;8.50;;;3.30;;
34035;SDS011;63481;52.588;22.472;2023-05-07T02:51:52;6.00;;;3.30;;
34035;SDS011;63481;52.588;22.472;2023-05-07T02:52:26;6.10;;;3.00;;
34035;SDS011;63481;52.588;22.472;2023-05-07T02:52:58;7.90;;;3.30;;
34035;SDS011;63481;52.588;22.472;2023-05-07T02:53:30;6.90;;;3.30;;
34035;SDS011;63481;52.588;22.472;2023-05-07T02:54:02;6.30;;;3.40;;
34035;SDS011;63481;52.588;22.472;2023-05-07T02:54:35;5.80;;;3.50;;
34035;SDS011;63481;52.588;22.472;2023-05-07T02:55:07;7.90;;;3.40;;
34035;SDS011;63481;52.588;22.472;2023-05-07T02:55:40;6.90;;;3.50;;
34035;SDS011;63481;52.588;22.472;2023-05-07T02:56:12;7.00;;;3.30;;
34035;SDS011;63481;52.588;22.472;2023-05-07T02:56:44;7.70;;;3.30;;
34035;SDS011;63481;52.588;22.472;2023-05-07T02:57:16;6.00;;;3.50;;
34035;SDS011;63481;52.588;22.472;2023-05-07T02:57:48;8.60;;;3.30;;
34035;SDS011;63481;52.588;22.472;2023-05-07T02:58:20;7.70;;;3.70;;
34035;SDS011;63481;52.588;22.472;2023-05-07T02:58:52;6.20;;;3.30;;
34035;SDS011;63481;52.588;22.472;2023-05-07T02:59:24;9.10;;;3.70;;
34035;SDS011;63481;52.588;22.472;2023-05-07T02:59:58;8.00;;;3.30;;
34035;SDS011;63481;52.588;22.472;2023-05-07T03:00:30;7.50;;;3.20;;
34035;SDS011;63481;52.588;22.472;2023-05-07T03:01:13;7.10;;;3.50;;
34035;SDS011;63481;52.588;22.472;2023-05-07T03:01:53;7.80;;;3.40;;
34035;SDS011;63481;52.588;22.472;2023-05-07T03:02:24;8.70;;;3.30;;
34035;SDS011;63481;52.588;22.472;2023-05-07T03:02:57;8.30;;;3.40;;
34035;SDS011;63481;52.588;22.472;2023-05-07T03:03:29;9.80;;;3.80;;
34035;SDS011;63481;52.588;22.472;2023-05-07T03:04:01;11.00;;;4.10;;
34035;SDS011;63481;52.588;22.472;2023-05-07T03:04:33;6.90;;;3.40;;
34035;SDS011;63481;52.588;22.472;2023-05-07T03:05:06;7.40;;;3.40;;
34035;SDS011;63481;52.588;22.472;2023-05-07T03:05:38;7.80;;;3.50;;
34035;SDS011;63481;52.588;22.472;2023-05-07T03:06:10;7.60;;;3.30;;
34035;SDS011;63481;52.588;22.472;2023-05-07T03:06:42;8.10;;;3.50;;
34035;SDS011;63481;52.588;22.472;2023-05-07T03:07:14;10.50;;;3.60;;
34035;SDS011;63481;52.588;22.472;2023-05-07T03:07:46;6.60;;;3.30;;
34035;SDS011;63481;52.588;22.472;2023-05-07T03:08:19;9.50;;;3.50;;
34035;SDS011;63481;52.588;22.472;2023-05-07T03:08:51;8.30;;;4.00;;
34035;SDS011;63481;52.588;22.472;2023-05-07T03:09:23;7.00;;;3.00;;
34035;SDS011;63481;52.588;22.472;2023-05-07T03:09:55;8.90;;;3.60;;
34035;SDS011;63481;52.588;22.472;2023-05-07T03:10:26;9.10;;;4.50;;
34035;SDS011;63481;52.588;22.472;2023-05-07T03:10:58;10.60;;;4.50;;
34035;SDS011;63481;52.588;22.472;2023-05-07T03:11:31;10.10;;;4.80;;
34035;SDS011;63481;52.588;22.472;2023-05-07T03:12:03;10.80;;;4.60;;
34035;SDS011;63481;52.588;22.472;2023-05-07T03:12:35;9.40;;;5.10;;
34035;SDS011;63481;52.588;22.472;2023-05-07T03:13:07;7.20;;;3.30;;
34035;SDS011;63481;52.588;22.472;2023-05-07T03:13:39;9.10;;;3.80;;
34035;SDS011;63481;52.588;22.472;2023-05-07T03:14:12;6.30;;;3.30;;
34035;SDS011;63481;52.588;22.472;2023-05-07T03:14:44;10.00;;;3.60;;
34035;SDS011;63481;52.588;22.472;2023-05-07T03:15:16;7.10;;;3.30;;